sensor_id;sensor_type;location;lat;lon;timestamp;pressure;altitude;pressure_sealevel;temperature;humidity
70954;BME280;58618;47.490;8.736;2023-01-25T00:00:29;97934.09;;;1.48;100.00
70954;BME280;58618;47.490;8.736;2023-01-25T00:02:57;97918.44;;;1.45;100.00
70954;BME280;58618;47.490;8.736;2023-01-25T00:05:24;97930.25;;;1.52;100.00
70954;BME280;58618;47.490;8.736;2023-01-25T00:07:51;97931.38;;;1.50;100.00
70954;BME280;58618;47.490;8.736;2023-01-25T00:10:19;97929.47;;;1.52;100.00
70954;BME280;58618;47.490;8.736;2023-01-25T00:12:47;97921.22;;;1.50;100.00
70954;BME280;58618;47.490;8.736;2023-01-25T00:15:14;97916.50;;;1.47;100.00
70954;BME280;58618;47.490;8.736;2023-01-25T00:17:42;97921.59;;;1.47;100.00
70954;BME280;58618;47.490;8.736;2023-01-25T00:20:09;97921.59;;;1.47;100.00
70954;BME280;58618;47.490;8.736;2023-01-25T00:22:36;97931.75;;;1.47;100.00
70954;BME280;58618;47.490;8.736;2023-01-25T00:25:04;97926.66;;;1.47;100.00
70954;BME280;58618;47.490;8.736;2023-01-25T00:27:31;97923.50;;;1.45;100.00
70954;BME280;58618;47.490;8.736;2023-01-25T00:30:01;97913.34;;;1.45;100.00
70954;BME280;58618;47.490;8.736;2023-01-25T00:32:36;97918.44;;;1.45;100.00
70954;BME280;58618;47.490;8.736;2023-01-25T00:35:10;97904.69;;;1.39;100.00
70954;BME280;58618;47.490;8.736;2023-01-25T00:37:39;97915.34;;;1.49;100.00
70954;BME280;58618;47.490;8.736;2023-01-25T00:40:10;97907.72;;;1.49;100.00
70954;BME280;58618;47.490;8.736;2023-01-25T00:42:37;97905.38;;;1.48;100.00
70954;BME280;58618;47.490;8.736;2023-01-25T00:45:08;97900.03;;;1.43;100.00
70954;BME280;58618;47.490;8.736;2023-01-25T00:47:36;97896.50;;;1.44;100.00
70954;BME280;58618;47.490;8.736;2023-01-25T00:50:05;97889.59;;;1.38;100.00
70954;BME280;58618;47.490;8.736;2023-01-25T00:52:32;97896.88;;;1.41;100.00
70954;BME280;58618;47.490;8.736;2023-01-25T00:54:59;97890.22;;;1.40;100.00
70954;BME280;58618;47.490;8.736;2023-01-25T00:57:26;97883.22;;;1.42;100.00
70954;BME280;58618;47.490;8.736;2023-01-25T00:59:53;97882.59;;;1.40;100.00
70954;BME280;58618;47.490;8.736;2023-01-25T01:02:21;97874.31;;;1.31;100.00
70954;BME280;58618;47.490;8.736;2023-01-25T01:04:48;97885.50;;;1.37;100.00
70954;BME280;58618;47.490;8.736;2023-01-25T01:07:15;97888.84;;;1.37;100.00
70954;BME280;58618;47.490;8.736;2023-01-25T01:09:43;97892.13;;;1.38;100.00
70954;BME280;58618;47.490;8.736;2023-01-25T01:12:10;97891.00;;;1.40;100.00
70954;BME280;58618;47.490;8.736;2023-01-25T01:14:37;97893.72;;;1.39;100.00
70954;BME280;58618;47.490;8.736;2023-01-25T01:17:04;97887.34;;;1.43;100.00
70954;BME280;58618;47.490;8.736;2023-01-25T01:19:32;97885.50;;;1.37;100.00
70954;BME280;58618;47.490;8.736;2023-01-25T01:21:59;97881.97;;;1.38;100.00
70954;BME280;58618;47.490;8.736;2023-01-25T01:24:26;97882.97;;;1.37;100.00
70954;BME280;58618;47.490;8.736;2023-01-25T01:26:54;97882.34;;;1.35;100.00
70954;BME280;58618;47.490;8.736;2023-01-25T01:29:21;97897.59;;;1.35;100.00
70954;BME280;58618;47.490;8.736;2023-01-25T01:31:49;97896.00;;;1.34;100.00
70954;BME280;58618;47.490;8.736;2023-01-25T01:34:17;97895.31;;;1.40;100.00
70954;BME280;58618;47.490;8.736;2023-01-25T01:36:45;97900.38;;;1.40;100.00
70954;BME280;58618;47.490;8.736;2023-01-25T01:39:12;97897.22;;;1.38;100.00
70954;BME280;58618;47.490;8.736;2023-01-25T01:41:39;97905.84;;;1.37;100.00
70954;BME280;58618;47.490;8.736;2023-01-25T01:44:14;97889.72;;;1.30;100.00
70954;BME280;58618;47.490;8.736;2023-01-25T01:46:45;97889.34;;;1.33;100.00
70954;BME280;58618;47.490;8.736;2023-01-25T01:49:18;97893.31;;;1.35;100.00
70954;BME280;58618;47.490;8.736;2023-01-25T01:51:52;97891.19;;;1.39;100.00
70954;BME280;58618;47.490;8.736;2023-01-25T01:54:27;97896.47;;;1.37;100.00
70954;BME280;58618;47.490;8.736;2023-01-25T01:56:57;97879.63;;;1.36;100.00
70954;BME280;58618;47.490;8.736;2023-01-25T01:59:29;97883.94;;;1.36;100.00
70954;BME280;58618;47.490;8.736;2023-01-25T02:01:57;97878.84;;;1.36;100.00
70954;BME280;58618;47.490;8.736;2023-01-25T02:04:26;97883.13;;;1.35;100.00
70954;BME280;58618;47.490;8.736;2023-01-25T02:06:58;97876.66;;;1.33;100.00
70954;BME280;58618;47.490;8.736;2023-01-25T02:09:26;97880.75;;;1.34;100.00
70954;BME280;58618;47.490;8.736;2023-01-25T02:11:55;97878.06;;;1.35;100.00
70954;BME280;58618;47.490;8.736;2023-01-25T02:14:26;97870.19;;;1.30;100.00
70954;BME280;58618;47.490;8.736;2023-01-25T02:16:53;97866.97;;;1.21;100.00
70954;BME280;58618;47.490;8.736;2023-01-25T02:19:33;97882.09;;;1.30;100.00
70954;BME280;58618;47.490;8.736;2023-01-25T02:22:08;97882.72;;;1.32;100.00
70954;BME280;58618;47.490;8.736;2023-01-25T02:24:43;97862.84;;;1.20;100.00
70954;BME280;58618;47.490;8.736;2023-01-25T02:27:13;97882.22;;;1.21;100.00
70954;BME280;58618;47.490;8.736;2023-01-25T02:29:40;97872.66;;;1.23;100.00
70954;BME280;58618;47.490;8.736;2023-01-25T02:32:07;97874.22;;;1.24;100.00
70954;BME280;58618;47.490;8.736;2023-01-25T02:34:34;97865.03;;;1.23;100.00
70954;BME280;58618;47.490;8.736;2023-01-25T02:37:02;97868.88;;;1.19;100.00
70954;BME280;58618;47.490;8.736;2023-01-25T02:39:29;97857.50;;;1.15;100.00
70954;BME280;58618;47.490;8.736;2023-01-25T02:41:56;97859.34;;;1.21;100.00
70954;BME280;58618;47.490;8.736;2023-01-25T02:44:26;97860.31;;;1.20;100.00
70954;BME280;58618;47.490;8.736;2023-01-25T02:46:55;97854.06;;;1.23;100.00
70954;BME280;58618;47.490;8.736;2023-01-25T02:49:35;97860.31;;;1.20;100.00
70954;BME280;58618;47.490;8.736;2023-01-25T02:52:04;97860.66;;;1.17;100.00
70954;BME280;58618;47.490;8.736;2023-01-25T02:54:31;97856.34;;;1.18;100.00
70954;BME280;58618;47.490;8.736;2023-01-25T02:56:58;97848.91;;;1.16;100.00
70954;BME280;58618;47.490;8.736;2023-01-25T02:59:25;97857.50;;;1.15;100.00
70954;BME280;58618;47.490;8.736;2023-01-25T03:01:52;97849.28;;;1.13;100.00
70954;BME280;58618;47.490;8.736;2023-01-25T03:04:19;97860.47;;;1.19;100.00
70954;BME280;58618;47.490;8.736;2023-01-25T03:06:48;97842.28;;;1.15;100.00
70954;BME280;58618;47.490;8.736;2023-01-25T03:09:16;97848.91;;;1.16;100.00
70954;BME280;58618;47.490;8.736;2023-01-25T03:11:43;97831.31;;;1.15;100.00
70954;BME280;58618;47.490;8.736;2023-01-25T03:14:10;97845.84;;;1.21;100.00
70954;BME280;58618;47.490;8.736;2023-01-25T03:16:37;97839.91;;;1.14;100.00
70954;BME280;58618;47.490;8.736;2023-01-25T03:19:04;97834.91;;;1.20;100.00
70954;BME280;58618;47.490;8.736;2023-01-25T03:21:31;97838.03;;;1.22;100.00
70954;BME280;58618;47.490;8.736;2023-01-25T03:24:00;97837.06;;;1.23;100.00
70954;BME280;58618;47.490;8.736;2023-01-25T03:26:28;97828.56;;;1.16;100.00
70954;BME280;58618;47.490;8.736;2023-01-25T03:28:55;97834.28;;;1.18;100.00
70954;BME280;58618;47.490;8.736;2023-01-25T03:31:23;97836.81;;;1.18;100.00
70954;BME280;58618;47.490;8.736;2023-01-25T03:33:50;97837.25;;;1.22;100.00
70954;BME280;58618;47.490;8.736;2023-01-25T03:36:17;97830.16;;;1.17;100.00
70954;BME280;58618;47.490;8.736;2023-01-25T03:38:44;97826.66;;;1.18;100.00
70954;BME280;58618;47.490;8.736;2023-01-25T03:41:12;97824.13;;;1.18;100.00
70954;BME280;58618;47.490;8.736;2023-01-25T03:43:39;97816.41;;;1.12;100.00
70954;BME280;58618;47.490;8.736;2023-01-25T03:46:07;97801.00;;;1.13;100.00
70954;BME280;58618;47.490;8.736;2023-01-25T03:48:34;97804.94;;;1.16;100.00
70954;BME280;58618;47.490;8.736;2023-01-25T03:51:02;97803.53;;;1.13;100.00
70954;BME280;58618;47.490;8.736;2023-01-25T03:53:30;97809.78;;;1.11;100.00
70954;BME280;58618;47.490;8.736;2023-01-25T03:55:59;97810.91;;;1.08;100.00
70954;BME280;58618;47.490;8.736;2023-01-25T03:58:28;97812.84;;;1.06;100.00
70954;BME280;58618;47.490;8.736;2023-01-25T04:00:57;97811.72;;;1.09;100.00
70954;BME280;58618;47.490;8.736;2023-01-25T04:03:24;97812.84;;;1.06;100.00
70954;BME280;58618;47.490;8.736;2023-01-25T04:05:52;97806.38;;;1.04;100.00
70954;BME280;58618;47.490;8.736;2023-01-25T04:08:19;97811.28;;;1.05;100.00
70954;BME280;58618;47.490;8.736;2023-01-25T04:10:49;97808.75;;;1.05;100.00
70954;BME280;58618;47.490;8.736;2023-01-25T04:13:18;97804.88;;;1.09;100.00
70954;BME280;58618;47.490;8.736;2023-01-25T04:15:46;97804.72;;;1.11;100.00
70954;BME280;58618;47.490;8.736;2023-01-25T04:18:14;97798.84;;;1.10;100.00
70954;BME280;58618;47.490;8.736;2023-01-25T04:20:42;97809.34;;;1.07;100.00
70954;BME280;58618;47.490;8.736;2023-01-25T04:23:10;97807.75;;;1.06;100.00
70954;BME280;58618;47.490;8.736;2023-01-25T04:25:37;97804.25;;;1.07;100.00
70954;BME280;58618;47.490;8.736;2023-01-25T04:28:04;97800.34;;;1.05;100.00
70954;BME280;58618;47.490;8.736;2023-01-25T04:30:32;97801.13;;;1.05;100.00
70954;BME280;58618;47.490;8.736;2023-01-25T04:33:03;97797.25;;;1.09;100.00
70954;BME280;58618;47.490;8.736;2023-01-25T04:35:31;97792.88;;;1.03;100.00
70954;BME280;58618;47.490;8.736;2023-01-25T04:37:58;97790.97;;;1.05;100.00
70954;BME280;58618;47.490;8.736;2023-01-25T04:40:26;97779.53;;;0.95;100.00
70954;BME280;58618;47.490;8.736;2023-01-25T04:42:53;97787.63;;;1.05;100.00
70954;BME280;58618;47.490;8.736;2023-01-25T04:45:21;97788.59;;;1.04;100.00
70954;BME280;58618;47.490;8.736;2023-01-25T04:47:49;97787.19;;;1.01;100.00
70954;BME280;58618;47.490;8.736;2023-01-25T04:50:17;97788.44;;;1.05;100.00
70954;BME280;58618;47.490;8.736;2023-01-25T04:52:45;97787.81;;;1.03;100.00
70954;BME280;58618;47.490;8.736;2023-01-25T04:55:12;97790.34;;;1.03;100.00
70954;BME280;58618;47.490;8.736;2023-01-25T04:57:39;97773.66;;;0.94;100.00
70954;BME280;58618;47.490;8.736;2023-01-25T05:00:07;97786.94;;;0.96;100.00
70954;BME280;58618;47.490;8.736;2023-01-25T05:02:35;97795.25;;;1.05;100.00
70954;BME280;58618;47.490;8.736;2023-01-25T05:05:02;97786.84;;;1.04;100.00
70954;BME280;58618;47.490;8.736;2023-01-25T05:07:31;97793.50;;;1.05;100.00
70954;BME280;58618;47.490;8.736;2023-01-25T05:09:58;97784.31;;;1.04;100.00
70954;BME280;58618;47.490;8.736;2023-01-25T05:12:25;97787.44;;;1.06;100.00
70954;BME280;58618;47.490;8.736;2023-01-25T05:14:54;97779.81;;;1.06;100.00
70954;BME280;58618;47.490;8.736;2023-01-25T05:17:21;97779.22;;;1.04;100.00
70954;BME280;58618;47.490;8.736;2023-01-25T05:19:48;97786.13;;;1.10;100.00
70954;BME280;58618;47.490;8.736;2023-01-25T05:22:17;97785.50;;;1.08;100.00
70954;BME280;58618;47.490;8.736;2023-01-25T05:24:47;97786.22;;;1.02;100.00
70954;BME280;58618;47.490;8.736;2023-01-25T05:27:16;97774.50;;;1.01;100.00
70954;BME280;58618;47.490;8.736;2023-01-25T05:29:44;97785.88;;;1.05;100.00
70954;BME280;58618;47.490;8.736;2023-01-25T05:32:13;97782.09;;;1.01;100.00
70954;BME280;58618;47.490;8.736;2023-01-25T05:34:41;97795.25;;;1.05;100.00
70954;BME280;58618;47.490;8.736;2023-01-25T05:37:11;97788.78;;;1.02;100.00
70954;BME280;58618;47.490;8.736;2023-01-25T05:39:39;97789.72;;;1.01;100.00
70954;BME280;58618;47.490;8.736;2023-01-25T05:42:10;97776.78;;;0.96;100.00
70954;BME280;58618;47.490;8.736;2023-01-25T05:44:37;97789.38;;;1.04;100.00
70954;BME280;58618;47.490;8.736;2023-01-25T05:47:04;97783.84;;;1.01;100.00
70954;BME280;58618;47.490;8.736;2023-01-25T05:49:32;97787.44;;;1.06;100.00
70954;BME280;58618;47.490;8.736;2023-01-25T05:51:59;97786.84;;;1.04;100.00
70954;BME280;58618;47.490;8.736;2023-01-25T05:54:26;97772.75;;;1.02;100.00
70954;BME280;58618;47.490;8.736;2023-01-25T05:56:53;97784.31;;;1.04;100.00
70954;BME280;58618;47.490;8.736;2023-01-25T05:59:22;97779.22;;;1.04;100.00
70954;BME280;58618;47.490;8.736;2023-01-25T06:01:49;97785.13;;;1.11;100.00
70954;BME280;58618;47.490;8.736;2023-01-25T06:04:17;97785.88;;;1.05;100.00
70954;BME280;58618;47.490;8.736;2023-01-25T06:06:44;97782.56;;;1.05;100.00
70954;BME280;58618;47.490;8.736;2023-01-25T06:09:12;97780.81;;;1.05;100.00
70954;BME280;58618;47.490;8.736;2023-01-25T06:11:41;97783.34;;;1.05;100.00
70954;BME280;58618;47.490;8.736;2023-01-25T06:14:09;97771.78;;;1.03;100.00
70954;BME280;58618;47.490;8.736;2023-01-25T06:16:37;97784.81;;;1.14;100.00
70954;BME280;58618;47.490;8.736;2023-01-25T06:19:05;97782.81;;;1.10;100.00
70954;BME280;58618;47.490;8.736;2023-01-25T06:21:33;97776.94;;;1.09;100.00
70954;BME280;58618;47.490;8.736;2023-01-25T06:24:01;97776.94;;;1.09;100.00
70954;BME280;58618;47.490;8.736;2023-01-25T06:26:29;97784.38;;;1.11;100.00
70954;BME280;58618;47.490;8.736;2023-01-25T06:28:56;97776.31;;;1.07;100.00
70954;BME280;58618;47.490;8.736;2023-01-25T06:31:23;97772.94;;;1.00;100.00
70954;BME280;58618;47.490;8.736;2023-01-25T06:33:52;97760.75;;;0.96;100.00
70954;BME280;58618;47.490;8.736;2023-01-25T06:36:20;97773.53;;;1.02;100.00
70954;BME280;58618;47.490;8.736;2023-01-25T06:38:48;97774.50;;;1.01;100.00
70954;BME280;58618;47.490;8.736;2023-01-25T06:41:17;97767.63;;;0.95;100.00
70954;BME280;58618;47.490;8.736;2023-01-25T06:43:44;97765.84;;;0.96;100.00
70954;BME280;58618;47.490;8.736;2023-01-25T06:46:22;97773.28;;;0.97;100.00
70954;BME280;58618;47.490;8.736;2023-01-25T06:48:49;97764.09;;;0.96;100.00
70954;BME280;58618;47.490;8.736;2023-01-25T06:51:18;97764.34;;;1.01;100.00
70954;BME280;58618;47.490;8.736;2023-01-25T06:53:45;97760.47;;;1.05;100.00
70954;BME280;58618;47.490;8.736;2023-01-25T06:56:14;97756.38;;;1.04;100.00
70954;BME280;58618;47.490;8.736;2023-01-25T06:58:43;97761.63;;;1.03;100.00
70954;BME280;58618;47.490;8.736;2023-01-25T07:01:13;97762.78;;;1.00;100.00
70954;BME280;58618;47.490;8.736;2023-01-25T07:03:41;97764.69;;;0.98;100.00
70954;BME280;58618;47.490;8.736;2023-01-25T07:06:09;97756.84;;;0.93;100.00
70954;BME280;58618;47.490;8.736;2023-01-25T07:08:38;97753.59;;;0.99;100.00
70954;BME280;58618;47.490;8.736;2023-01-25T07:11:07;97753.81;;;1.04;100.00
70954;BME280;58618;47.490;8.736;2023-01-25T07:13:39;97755.75;;;1.02;100.00
70954;BME280;58618;47.490;8.736;2023-01-25T07:16:10;97758.66;;;0.99;100.00
70954;BME280;58618;47.490;8.736;2023-01-25T07:18:39;97762.03;;;1.06;100.00
70954;BME280;58618;47.490;8.736;2023-01-25T07:21:10;97758.91;;;1.04;100.00
70954;BME280;58618;47.490;8.736;2023-01-25T07:23:41;97755.75;;;1.02;100.00
70954;BME280;58618;47.490;8.736;2023-01-25T07:26:14;97751.88;;;1.06;100.00
70954;BME280;58618;47.490;8.736;2023-01-25T07:28:43;97751.47;;;1.03;100.00
70954;BME280;58618;47.490;8.736;2023-01-25T07:31:10;97760.81;;;1.02;100.00
70954;BME280;58618;47.490;8.736;2023-01-25T07:33:38;97757.94;;;1.05;100.00
70954;BME280;58618;47.490;8.736;2023-01-25T07:36:07;97751.28;;;1.04;100.00
70954;BME280;58618;47.490;8.736;2023-01-25T07:38:35;97753.81;;;1.04;100.00
70954;BME280;58618;47.490;8.736;2023-01-25T07:41:05;97753.91;;;1.11;100.00
70954;BME280;58618;47.490;8.736;2023-01-25T07:43:32;97750.91;;;1.07;100.00
70954;BME280;58618;47.490;8.736;2023-01-25T07:46:00;97750.31;;;1.05;100.00
70954;BME280;58618;47.490;8.736;2023-01-25T07:48:27;97741.47;;;1.01;100.00
70954;BME280;58618;47.490;8.736;2023-01-25T07:50:57;97745.59;;;1.02;100.00
70954;BME280;58618;47.490;8.736;2023-01-25T07:53:39;97754.31;;;1.14;100.00
70954;BME280;58618;47.490;8.736;2023-01-25T07:56:09;97753.44;;;1.07;100.00
70954;BME280;58618;47.490;8.736;2023-01-25T07:58:36;97757.03;;;1.13;100.00
70954;BME280;58618;47.490;8.736;2023-01-25T08:01:07;97749.22;;;1.14;100.00
70954;BME280;58618;47.490;8.736;2023-01-25T08:03:35;97747.47;;;1.15;100.00
70954;BME280;58618;47.490;8.736;2023-01-25T08:06:03;97754.31;;;1.14;100.00
70954;BME280;58618;47.490;8.736;2023-01-25T08:08:31;97751.16;;;1.12;100.00
70954;BME280;58618;47.490;8.736;2023-01-25T08:11:00;97743.34;;;1.14;100.00
70954;BME280;58618;47.490;8.736;2023-01-25T08:13:29;97744.69;;;1.10;100.00
70954;BME280;58618;47.490;8.736;2023-01-25T08:15:56;97740.16;;;1.05;100.00
70954;BME280;58618;47.490;8.736;2023-01-25T08:18:23;97750.31;;;1.05;100.00
70954;BME280;58618;47.490;8.736;2023-01-25T08:20:56;97754.78;;;1.03;100.00
70954;BME280;58618;47.490;8.736;2023-01-25T08:23:24;97746.53;;;1.01;100.00
70954;BME280;58618;47.490;8.736;2023-01-25T08:25:51;97747.16;;;1.03;100.00
70954;BME280;58618;47.490;8.736;2023-01-25T08:28:18;97741.28;;;1.03;100.00
70954;BME280;58618;47.490;8.736;2023-01-25T08:30:46;97735.44;;;1.02;100.00
70954;BME280;58618;47.490;8.736;2023-01-25T08:33:13;97730.72;;;0.99;100.00
70954;BME280;58618;47.490;8.736;2023-01-25T08:35:41;97736.28;;;1.09;100.00
70954;BME280;58618;47.490;8.736;2023-01-25T08:38:08;97746.78;;;1.06;100.00
70954;BME280;58618;47.490;8.736;2023-01-25T08:40:36;97740.41;;;1.10;100.00
70954;BME280;58618;47.490;8.736;2023-01-25T08:43:03;97735.50;;;1.09;100.00
70954;BME280;58618;47.490;8.736;2023-01-25T08:45:33;97732.72;;;1.04;100.00
70954;BME280;58618;47.490;8.736;2023-01-25T08:48:03;97736.59;;;1.00;100.00
70954;BME280;58618;47.490;8.736;2023-01-25T08:50:31;97728.41;;;1.04;100.00
70954;BME280;58618;47.490;8.736;2023-01-25T08:52:58;97719.09;;;1.11;100.00
70954;BME280;58618;47.490;8.736;2023-01-25T08:55:25;97722.25;;;1.13;100.00
70954;BME280;58618;47.490;8.736;2023-01-25T08:57:52;97723.81;;;1.14;100.00
70954;BME280;58618;47.490;8.736;2023-01-25T09:00:20;97720.06;;;1.10;100.00
70954;BME280;58618;47.490;8.736;2023-01-25T09:02:47;97704.59;;;1.05;100.00
70954;BME280;58618;47.490;8.736;2023-01-25T09:05:15;97709.69;;;1.05;100.00
70954;BME280;58618;47.490;8.736;2023-01-25T09:07:43;97700.28;;;1.06;100.00
70954;BME280;58618;47.490;8.736;2023-01-25T09:10:10;97699.38;;;1.13;100.00
70954;BME280;58618;47.490;8.736;2023-01-25T09:12:37;97699.25;;;1.21;100.00
70954;BME280;58618;47.490;8.736;2023-01-25T09:15:05;97694.78;;;1.23;100.00
70954;BME280;58618;47.490;8.736;2023-01-25T09:17:35;97696.09;;;1.19;100.00
70954;BME280;58618;47.490;8.736;2023-01-25T09:20:05;97691.69;;;1.07;100.00
70954;BME280;58618;47.490;8.736;2023-01-25T09:22:34;97690.19;;;1.12;100.00
70954;BME280;58618;47.490;8.736;2023-01-25T09:25:01;97693.69;;;1.11;100.00
70954;BME280;58618;47.490;8.736;2023-01-25T09:27:28;97694.91;;;1.15;100.00
70954;BME280;58618;47.490;8.736;2023-01-25T09:29:55;97684.91;;;1.14;100.00
70954;BME280;58618;47.490;8.736;2023-01-25T09:32:23;97670.34;;;1.01;100.00
70954;BME280;58618;47.490;8.736;2023-01-25T09:34:50;97684.75;;;1.15;100.00
70954;BME280;58618;47.490;8.736;2023-01-25T09:37:17;97689.44;;;1.18;100.00
70954;BME280;58618;47.490;8.736;2023-01-25T09:39:45;97684.78;;;1.22;100.00
70954;BME280;58618;47.490;8.736;2023-01-25T09:42:22;97687.88;;;1.17;100.00
70954;BME280;58618;47.490;8.736;2023-01-25T09:45:14;97686.28;;;1.16;100.00
70954;BME280;58618;47.490;8.736;2023-01-25T09:47:46;97669.13;;;1.18;100.00
70954;BME280;58618;47.490;8.736;2023-01-25T09:50:28;97675.84;;;1.26;100.00
70954;BME280;58618;47.490;8.736;2023-01-25T09:53:18;97672.00;;;1.37;100.00
70954;BME280;58618;47.490;8.736;2023-01-25T09:55:51;97668.72;;;1.43;100.00
70954;BME280;58618;47.490;8.736;2023-01-25T09:58:26;97666.19;;;1.43;100.00
70954;BME280;58618;47.490;8.736;2023-01-25T10:01:04;97668.13;;;1.41;100.00
70954;BME280;58618;47.490;8.736;2023-01-25T10:03:42;97666.69;;;1.32;100.00
70954;BME280;58618;47.490;8.736;2023-01-25T10:06:12;97665.34;;;1.36;100.00
70954;BME280;58618;47.490;8.736;2023-01-25T10:08:47;97660.72;;;1.46;100.00
70954;BME280;58618;47.490;8.736;2023-01-25T10:11:22;97668.13;;;1.41;100.00
70954;BME280;58618;47.490;8.736;2023-01-25T10:13:51;97659.00;;;1.25;100.00
70954;BME280;58618;47.490;8.736;2023-01-25T10:16:23;97674.66;;;1.28;100.00
70954;BME280;58618;47.490;8.736;2023-01-25T10:18:57;97669.69;;;1.42;100.00
70954;BME280;58618;47.490;8.736;2023-01-25T10:21:31;97656.31;;;1.33;100.00
70954;BME280;58618;47.490;8.736;2023-01-25T10:26:54;97653.59;;;1.35;100.00
70954;BME280;58618;47.490;8.736;2023-01-25T10:29:26;97651.28;;;1.40;100.00
70954;BME280;58618;47.490;8.736;2023-01-25T10:31:54;97651.63;;;1.30;100.00
70954;BME280;58618;47.490;8.736;2023-01-25T10:34:27;97652.31;;;1.17;100.00
70954;BME280;58618;47.490;8.736;2023-01-25T10:36:59;97646.22;;;1.40;100.00
70954;BME280;58618;47.490;8.736;2023-01-25T10:39:28;97661.38;;;1.26;100.00
70954;BME280;58618;47.490;8.736;2023-01-25T10:42:00;97659.81;;;1.25;100.00
70954;BME280;58618;47.490;8.736;2023-01-25T10:44:31;97654.72;;;1.25;100.00
70954;BME280;58618;47.490;8.736;2023-01-25T10:47:02;97655.63;;;1.18;100.00
70954;BME280;58618;47.490;8.736;2023-01-25T10:49:39;97649.19;;;1.22;100.00
70954;BME280;58618;47.490;8.736;2023-01-25T10:52:13;97650.84;;;1.30;100.00
70954;BME280;58618;47.490;8.736;2023-01-25T10:54:40;97639.94;;;1.36;100.00
70954;BME280;58618;47.490;8.736;2023-01-25T10:57:13;97643.66;;;1.40;100.00
70954;BME280;58618;47.490;8.736;2023-01-25T10:59:43;97634.41;;;1.25;100.00
70954;BME280;58618;47.490;8.736;2023-01-25T11:02:38;97629.75;;;1.36;100.00
70954;BME280;58618;47.490;8.736;2023-01-25T11:05:30;97619.97;;;1.33;100.00
70954;BME280;58618;47.490;8.736;2023-01-25T11:07:58;97625.13;;;1.46;100.00
70954;BME280;58618;47.490;8.736;2023-01-25T11:10:42;97620.38;;;1.36;100.00
70954;BME280;58618;47.490;8.736;2023-01-25T11:13:26;97625.53;;;1.43;100.00
70954;BME280;58618;47.490;8.736;2023-01-25T11:16:13;97620.00;;;1.39;100.00
70954;BME280;58618;47.490;8.736;2023-01-25T11:18:49;97621.63;;;1.47;100.00
70954;BME280;58618;47.490;8.736;2023-01-25T11:21:19;97617.69;;;1.44;100.00
70954;BME280;58618;47.490;8.736;2023-01-25T11:24:03;97612.25;;;1.47;100.00
70954;BME280;58618;47.490;8.736;2023-01-25T11:26:41;97616.94;;;1.50;100.00
70954;BME280;58618;47.490;8.736;2023-01-25T11:29:15;97607.13;;;1.41;100.00
70954;BME280;58618;47.490;8.736;2023-01-25T11:31:48;97602.97;;;1.33;100.00
70954;BME280;58618;47.490;8.736;2023-01-25T11:34:18;97597.47;;;1.30;100.00
70954;BME280;58618;47.490;8.736;2023-01-25T11:36:56;97602.22;;;1.39;100.00
70954;BME280;58618;47.490;8.736;2023-01-25T11:39:41;97600.00;;;1.30;100.00
70954;BME280;58618;47.490;8.736;2023-01-25T11:42:22;97591.03;;;1.34;100.00
70954;BME280;58618;47.490;8.736;2023-01-25T11:47:58;97583.78;;;1.31;100.00
70954;BME280;58618;47.490;8.736;2023-01-25T11:50:33;97585.91;;;1.27;100.00
70954;BME280;58618;47.490;8.736;2023-01-25T11:53:24;97575.75;;;1.27;100.00
70954;BME280;58618;47.490;8.736;2023-01-25T11:55:58;97564.38;;;1.23;100.00
70954;BME280;58618;47.490;8.736;2023-01-25T11:58:39;97563.81;;;1.27;100.00
70954;BME280;58618;47.490;8.736;2023-01-25T12:01:17;97562.06;;;1.28;100.00
70954;BME280;58618;47.490;8.736;2023-01-25T12:04:11;97560.13;;;1.30;100.00
70954;BME280;58618;47.490;8.736;2023-01-25T12:06:52;97558.91;;;1.19;100.00
70954;BME280;58618;47.490;8.736;2023-01-25T12:09:33;97551.88;;;1.21;100.00
70954;BME280;58618;47.490;8.736;2023-01-25T12:12:12;97530.78;;;1.21;100.00
70954;BME280;58618;47.490;8.736;2023-01-25T12:14:58;97549.19;;;1.30;100.00
70954;BME280;58618;47.490;8.736;2023-01-25T12:17:43;97541.78;;;1.35;100.00
70954;BME280;58618;47.490;8.736;2023-01-25T12:20:25;97535.13;;;1.34;100.00
70954;BME280;58618;47.490;8.736;2023-01-25T12:23:18;97533.97;;;1.36;100.00
70954;BME280;58618;47.490;8.736;2023-01-25T12:26:02;97528.84;;;1.30;100.00
70954;BME280;58618;47.490;8.736;2023-01-25T12:28:35;97526.94;;;1.32;100.00
70954;BME280;58618;47.490;8.736;2023-01-25T12:31:11;97523.16;;;1.27;100.00
70954;BME280;58618;47.490;8.736;2023-01-25T12:33:45;97520.63;;;1.27;100.00
70954;BME280;58618;47.490;8.736;2023-01-25T12:36:16;97511.06;;;1.30;100.00
70954;BME280;58618;47.490;8.736;2023-01-25T12:38:50;97510.09;;;1.31;100.00
70954;BME280;58618;47.490;8.736;2023-01-25T12:41:27;97506.22;;;1.35;100.00
70954;BME280;58618;47.490;8.736;2023-01-25T12:44:02;97498.41;;;1.36;100.00
70954;BME280;58618;47.490;8.736;2023-01-25T12:46:38;97505.06;;;1.44;100.00
70954;BME280;58618;47.490;8.736;2023-01-25T12:49:14;97495.22;;;1.27;100.00
70954;BME280;58618;47.490;8.736;2023-01-25T12:51:44;97490.13;;;1.27;100.00
70954;BME280;58618;47.490;8.736;2023-01-25T12:54:17;97484.28;;;1.34;100.00
70954;BME280;58618;47.490;8.736;2023-01-25T12:56:53;97482.38;;;1.36;100.00
70954;BME280;58618;47.490;8.736;2023-01-25T12:59:29;97483.19;;;1.43;100.00
70954;BME280;58618;47.490;8.736;2023-01-25T13:02:09;97481.22;;;1.45;100.00
70954;BME280;58618;47.490;8.736;2023-01-25T13:04:53;97471.44;;;1.48;100.00
70954;BME280;58618;47.490;8.736;2023-01-25T13:07:28;97487.06;;;1.39;100.00
70954;BME280;58618;47.490;8.736;2023-01-25T13:09:58;97482.78;;;1.46;100.00
70954;BME280;58618;47.490;8.736;2023-01-25T13:12:28;97482.97;;;1.44;100.00
70954;BME280;58618;47.490;8.736;2023-01-25T13:14:55;97476.13;;;1.45;100.00
70954;BME280;58618;47.490;8.736;2023-01-25T13:17:28;97473.16;;;1.35;100.00
70954;BME280;58618;47.490;8.736;2023-01-25T13:19:58;97475.31;;;1.31;100.00
70954;BME280;58618;47.490;8.736;2023-01-25T13:22:54;97476.06;;;1.25;100.00